Time;durP1;ratioP1;P1;durP2;ratioP2;P2;SDS_P1;SDS_P2;PMS_P1;PMS_P2;Temp;Humidity;BMP_temperature;BMP_pressure;BME280_temperature;BME280_humidity;BME280_pressure;Samples;Min_cycle;Max_cycle;Signal;HPM_P1;HPM_P2
2023/04/24 00:02:00;;;;;;;14.17;7.37;;;13.80;99.90;;;;;;4995430;28;20193;-82
2023/04/24 00:04:27;;;;;;;12.63;6.97;;;13.70;99.90;;;;;;4977571;28;20566;-80
2023/04/24 00:06:56;;;;;;;10.40;6.67;;;13.60;99.90;;;;;;4977970;28;20276;-81
2023/04/24 00:09:24;;;;;;;9.93;6.87;;;13.50;99.90;;;;;;4977683;28;20200;-82
2023/04/24 00:11:54;;;;;;;10.90;6.90;;;13.40;99.90;;;;;;4995204;28;20537;-78
2023/04/24 00:14:21;;;;;;;12.57;7.20;;;13.40;99.90;;;;;;4995212;28;20213;-79
2023/04/24 00:16:48;;;;;;;14.33;7.50;;;13.30;99.90;;;;;;4995217;28;20665;-79
2023/04/24 00:19:16;;;;;;;13.17;7.27;;;13.30;99.90;;;;;;4995492;28;20209;-79
2023/04/24 00:21:43;;;;;;;14.20;7.93;;;13.30;99.90;;;;;;4978479;28;20713;-79
2023/04/24 00:24:10;;;;;;;15.13;7.70;;;13.30;99.90;;;;;;4977843;28;20212;-80
2023/04/24 00:26:37;;;;;;;12.70;7.53;;;13.30;99.90;;;;;;4995070;28;20196;-79
2023/04/24 00:29:03;;;;;;;12.77;7.70;;;13.40;99.90;;;;;;4977639;28;20207;-80
2023/04/24 00:31:30;;;;;;;10.97;7.07;;;13.30;99.90;;;;;;4995262;28;20196;-80
2023/04/24 00:33:58;;;;;;;11.77;7.60;;;13.30;99.90;;;;;;4977463;28;20733;-79
2023/04/24 00:36:25;;;;;;;11.70;7.57;;;13.20;99.90;;;;;;4978709;28;20207;-82
2023/04/24 00:38:52;;;;;;;11.13;7.30;;;13.20;99.90;;;;;;4977003;28;20214;-80
2023/04/24 00:41:18;;;;;;;12.40;7.17;;;13.10;99.90;;;;;;4977498;28;20189;-81
2023/04/24 00:43:46;;;;;;;12.07;7.53;;;13.20;99.90;;;;;;4994547;28;20727;-80
2023/04/24 00:46:13;;;;;;;14.73;7.63;;;13.10;99.90;;;;;;4977169;28;20208;-80
2023/04/24 00:48:40;;;;;;;15.57;7.70;;;13.10;99.90;;;;;;4977101;28;20540;-81
2023/04/24 00:51:08;;;;;;;12.30;7.17;;;13.10;99.90;;;;;;4976922;28;20188;-81
2023/04/24 00:53:35;;;;;;;11.23;7.10;;;13.00;99.90;;;;;;4976967;28;20225;-81
2023/04/24 00:56:02;;;;;;;11.07;7.33;;;13.00;99.90;;;;;;4977206;28;20201;-81
2023/04/24 00:58:31;;;;;;;12.53;7.90;;;13.00;99.90;;;;;;4976751;28;20209;-80
2023/04/24 01:01:00;;;;;;;11.10;7.30;;;13.00;99.90;;;;;;4976894;28;20292;-81
2023/04/24 01:03:31;;;;;;;13.30;7.43;;;13.10;99.90;;;;;;4976570;28;20530;-81
2023/04/24 01:05:59;;;;;;;12.27;7.63;;;13.10;99.90;;;;;;4994385;28;20185;-81
2023/04/24 01:08:28;;;;;;;13.40;7.80;;;13.20;99.90;;;;;;4994230;28;20271;-80
2023/04/24 01:10:56;;;;;;;12.70;7.53;;;13.20;99.90;;;;;;4996122;28;20203;-81
2023/04/24 01:13:23;;;;;;;12.70;7.80;;;13.20;99.90;;;;;;4976547;28;20217;-80
2023/04/24 01:15:51;;;;;;;13.63;8.33;;;13.20;99.90;;;;;;4976661;28;20300;-81
2023/04/24 01:18:17;;;;;;;14.10;7.87;;;13.10;99.90;;;;;;4976535;28;20251;-81
2023/04/24 01:20:46;;;;;;;14.63;8.17;;;13.10;99.90;;;;;;4977061;28;20197;-81
2023/04/24 01:23:13;;;;;;;13.83;7.67;;;13.20;99.90;;;;;;4976437;28;20188;-80
2023/04/24 01:25:40;;;;;;;16.43;8.07;;;13.20;99.90;;;;;;4976523;28;20188;-81
2023/04/24 01:28:07;;;;;;;11.40;8.13;;;13.30;99.90;;;;;;4993850;28;20529;-80
2023/04/24 01:30:34;;;;;;;11.53;7.77;;;13.20;99.90;;;;;;4993973;28;20208;-81
2023/04/24 01:33:01;;;;;;;12.50;7.67;;;13.10;99.90;;;;;;4993478;28;20308;-81
2023/04/24 01:35:28;;;;;;;14.73;7.47;;;13.20;99.90;;;;;;4993593;28;20263;-80
2023/04/24 01:37:55;;;;;;;13.03;8.13;;;13.20;99.90;;;;;;4993792;28;20196;-80
2023/04/24 01:40:22;;;;;;;12.57;7.70;;;13.20;99.90;;;;;;4993810;28;20197;-80
2023/04/24 01:42:50;;;;;;;12.27;7.90;;;13.20;99.90;;;;;;4976174;28;20239;-79
2023/04/24 01:45:17;;;;;;;16.00;8.30;;;13.20;99.90;;;;;;4976309;28;20197;-79
2023/04/24 01:47:46;;;;;;;12.20;8.20;;;13.20;99.90;;;;;;4993341;28;20192;-81
2023/04/24 01:50:13;;;;;;;12.70;7.73;;;13.10;99.90;;;;;;4976130;28;20670;-80
2023/04/24 01:52:41;;;;;;;13.13;7.93;;;13.10;99.90;;;;;;4976226;28;20197;-81
2023/04/24 01:55:09;;;;;;;11.83;7.90;;;13.10;99.90;;;;;;4993185;28;20291;-82
2023/04/24 01:57:37;;;;;;;12.43;7.27;;;13.10;99.90;;;;;;4975805;28;20200;-80
2023/04/24 02:00:06;;;;;;;12.17;7.47;;;13.00;99.90;;;;;;4976530;28;20291;-83
2023/04/24 02:02:36;;;;;;;11.97;7.90;;;13.00;99.90;;;;;;4993219;28;20224;-82
2023/04/24 02:05:06;;;;;;;13.07;7.53;;;12.90;99.90;;;;;;4976500;28;20247;-83
2023/04/24 02:07:33;;;;;;;13.10;8.40;;;12.80;99.90;;;;;;4976802;28;20213;-83
2023/04/24 02:10:00;;;;;;;12.07;8.37;;;12.80;99.90;;;;;;4976225;28;20205;-83
2023/04/24 02:12:27;;;;;;;14.10;7.80;;;12.80;99.90;;;;;;4993278;28;20193;-80
2023/04/24 02:14:54;;;;;;;12.93;8.10;;;12.70;99.90;;;;;;4976146;28;20323;-84
2023/04/24 02:17:21;;;;;;;12.73;8.10;;;12.70;99.90;;;;;;4975802;28;20567;-84
2023/04/24 02:19:47;;;;;;;10.93;7.30;;;12.60;99.90;;;;;;4977183;28;20205;-85
2023/04/24 02:22:15;;;;;;;14.43;8.60;;;12.60;99.90;;;;;;4976033;28;20208;-84
2023/04/24 02:24:41;;;;;;;11.50;8.13;;;12.60;99.90;;;;;;4976046;28;20203;-85
2023/04/24 02:27:08;;;;;;;12.37;8.17;;;12.40;99.90;;;;;;4996458;28;20197;-84
2023/04/24 02:29:35;;;;;;;16.80;8.83;;;12.30;99.90;;;;;;4975943;28;20296;-83
2023/04/24 02:32:02;;;;;;;12.63;8.30;;;12.20;99.90;;;;;;4993560;28;20205;-83
2023/04/24 02:34:29;;;;;;;13.80;8.17;;;12.10;99.90;;;;;;4975526;28;20705;-83
2023/04/24 02:36:56;;;;;;;14.33;8.60;;;12.10;99.90;;;;;;4992909;28;20208;-82
2023/04/24 02:39:23;;;;;;;14.73;9.23;;;12.00;99.90;;;;;;4993116;28;20320;-83
2023/04/24 02:41:49;;;;;;;14.90;8.63;;;11.90;99.90;;;;;;4993484;28;20216;-83
2023/04/24 02:44:17;;;;;;;12.57;8.70;;;11.90;99.90;;;;;;4975674;28;20204;-83
2023/04/24 02:46:51;;;;;;;13.13;8.43;;;11.90;99.90;;;;;;4975322;28;20204;-83
2023/04/24 02:49:20;;;;;;;14.90;8.50;;;11.80;99.90;;;;;;4975602;28;20208;-82
2023/04/24 02:51:47;;;;;;;13.17;7.97;;;11.80;99.90;;;;;;4975708;28;20185;-83
2023/04/24 02:54:14;;;;;;;15.97;8.60;;;11.70;99.90;;;;;;4975695;28;20235;-82
2023/04/24 02:56:40;;;;;;;13.40;7.93;;;11.70;99.90;;;;;;4992799;28;20200;-83
2023/04/24 02:59:07;;;;;;;13.83;8.33;;;11.60;99.90;;;;;;4992828;28;20216;-83
2023/04/24 03:01:35;;;;;;;12.37;8.43;;;11.60;99.90;;;;;;4995763;28;20192;-82
2023/04/24 03:04:03;;;;;;;14.93;8.70;;;11.60;99.90;;;;;;4978951;28;20295;-83
2023/04/24 03:06:32;;;;;;;15.50;8.70;;;11.60;99.90;;;;;;4978847;28;20197;-84
2023/04/24 03:08:59;;;;;;;15.13;8.60;;;11.40;99.90;;;;;;4979409;28;20193;-83
2023/04/24 03:11:26;;;;;;;14.40;8.47;;;11.40;99.90;;;;;;5002982;28;20205;-83
2023/04/24 03:13:53;;;;;;;13.27;8.37;;;11.40;99.90;;;;;;4978886;28;20319;-82
2023/04/24 03:16:20;;;;;;;13.53;8.77;;;11.40;99.90;;;;;;4978939;28;20662;-84
2023/04/24 03:18:48;;;;;;;13.80;8.70;;;11.20;99.90;;;;;;4979057;28;20317;-84
2023/04/24 03:21:15;;;;;;;15.70;9.30;;;11.20;99.90;;;;;;4978760;28;20264;-81
2023/04/24 03:23:41;;;;;;;14.87;9.10;;;11.10;99.90;;;;;;4979285;28;20197;-82
2023/04/24 03:26:08;;;;;;;16.43;9.00;;;11.00;99.90;;;;;;4978994;28;20196;-82
2023/04/24 03:28:35;;;;;;;13.53;8.83;;;11.00;99.90;;;;;;4996685;28;20204;-81
2023/04/24 03:31:03;;;;;;;14.50;8.50;;;11.00;99.90;;;;;;4978846;28;20636;-81
2023/04/24 03:33:30;;;;;;;14.23;9.27;;;11.00;99.90;;;;;;4978289;28;20614;-82
2023/04/24 03:35:57;;;;;;;14.63;9.13;;;11.00;99.90;;;;;;4978527;28;20579;-82
2023/04/24 03:38:24;;;;;;;15.20;9.07;;;11.00;99.90;;;;;;4978490;28;20212;-82
2023/04/24 03:40:51;;;;;;;14.57;9.17;;;10.90;99.90;;;;;;4996020;28;20207;-81
2023/04/24 03:43:17;;;;;;;15.17;8.50;;;10.90;99.90;;;;;;4995903;28;20515;-82
2023/04/24 03:45:45;;;;;;;15.07;9.37;;;10.90;99.90;;;;;;4978568;28;20201;-82
2023/04/24 03:48:12;;;;;;;14.80;8.90;;;10.90;99.90;;;;;;4978354;28;20296;-83
2023/04/24 03:50:39;;;;;;;16.67;9.43;;;10.90;99.90;;;;;;4995696;28;20185;-83
2023/04/24 03:53:06;;;;;;;14.30;8.90;;;11.00;99.90;;;;;;4998261;28;20200;-83
2023/04/24 03:55:33;;;;;;;13.10;8.90;;;11.00;99.90;;;;;;4978532;28;20225;-83
2023/04/24 03:58:00;;;;;;;15.53;8.73;;;11.10;99.90;;;;;;4978047;28;20642;-82
2023/04/24 04:00:27;;;;;;;15.07;9.23;;;11.10;99.90;;;;;;4964130;28;20228;-83
2023/04/24 04:02:54;;;;;;;13.80;8.40;;;11.10;99.90;;;;;;4961993;28;20211;-83
2023/04/24 04:05:22;;;;;;;13.17;8.50;;;11.20;99.90;;;;;;4977683;28;20244;-81
2023/04/24 04:07:49;;;;;;;16.17;9.43;;;11.20;99.90;;;;;;4977961;28;20208;-80
2023/04/24 04:10:17;;;;;;;14.10;8.97;;;11.30;99.90;;;;;;4978287;28;20284;-82
2023/04/24 04:12:44;;;;;;;12.60;8.70;;;11.30;99.90;;;;;;4978109;28;20197;-82
2023/04/24 04:15:11;;;;;;;14.83;8.93;;;11.40;99.90;;;;;;4977763;28;20308;-81
2023/04/24 04:17:38;;;;;;;14.63;8.63;;;11.30;99.90;;;;;;4977996;28;20204;-81
2023/04/24 04:20:11;;;;;;;15.30;8.97;;;11.40;99.90;;;;;;4977656;28;20236;-81
2023/04/24 04:22:38;;;;;;;13.50;8.60;;;11.40;99.90;;;;;;4981131;28;20201;-80
2023/04/24 04:25:08;;;;;;;13.87;8.40;;;11.40;99.90;;;;;;4977737;28;20650;-80
2023/04/24 04:27:36;;;;;;;14.47;8.60;;;11.50;99.90;;;;;;4977639;28;20216;-82
2023/04/24 04:30:04;;;;;;;14.50;8.60;;;11.60;99.90;;;;;;4978817;28;20559;-82
2023/04/24 04:32:33;;;;;;;13.03;9.13;;;11.60;99.90;;;;;;4995261;28;20243;-80
2023/04/24 04:35:03;;;;;;;17.90;9.17;;;11.60;99.90;;;;;;4977894;28;20216;-81
2023/04/24 04:37:33;;;;;;;14.80;8.80;;;11.60;99.90;;;;;;4995224;28;20197;-80
2023/04/24 04:40:00;;;;;;;14.07;8.40;;;11.70;99.90;;;;;;4977348;28;20200;-81
2023/04/24 04:42:28;;;;;;;14.40;8.97;;;11.70;99.90;;;;;;4994853;28;20314;-80
2023/04/24 04:44:57;;;;;;;12.70;8.20;;;11.80;99.90;;;;;;4977844;28;20619;-80
2023/04/24 04:47:24;;;;;;;14.33;8.50;;;11.80;99.90;;;;;;4977854;28;20216;-80
2023/04/24 04:49:51;;;;;;;20.13;9.50;;;11.90;99.90;;;;;;4977326;28;20279;-81
2023/04/24 04:52:24;;;;;;;13.63;8.67;;;11.90;99.90;;;;;;4977205;28;20295;-81
2023/04/24 04:54:51;;;;;;;13.00;8.77;;;12.00;99.90;;;;;;4977254;28;20229;-81
2023/04/24 04:57:18;;;;;;;12.63;8.40;;;12.00;99.90;;;;;;4977033;28;20185;-81
2023/04/24 04:59:46;;;;;;;16.00;8.27;;;12.10;99.90;;;;;;4977269;28;20561;-81
2023/04/24 05:02:13;;;;;;;12.20;8.57;;;12.10;99.90;;;;;;4976754;28;20201;-81
2023/04/24 05:04:40;;;;;;;13.43;8.40;;;12.00;99.90;;;;;;4976784;28;20221;-80
2023/04/24 05:07:09;;;;;;;14.70;8.90;;;12.10;99.90;;;;;;4976789;28;20193;-81
2023/04/24 05:09:35;;;;;;;14.90;8.63;;;12.20;99.90;;;;;;4994705;28;20185;-82
2023/04/24 05:12:03;;;;;;;12.40;8.47;;;12.30;99.90;;;;;;4976558;28;20609;-81
2023/04/24 05:14:30;;;;;;;14.60;8.63;;;12.40;99.90;;;;;;4976559;28;20316;-81
2023/04/24 05:16:57;;;;;;;12.30;8.00;;;12.40;99.90;;;;;;4976962;28;20209;-82
2023/04/24 05:19:24;;;;;;;16.70;8.90;;;12.50;99.90;;;;;;4994665;28;20609;-81
2023/04/24 05:21:50;;;;;;;14.87;8.90;;;12.60;99.90;;;;;;4996435;28;20203;-80
2023/04/24 05:24:21;;;;;;;12.80;8.27;;;12.60;99.90;;;;;;4976266;28;20746;-81
2023/04/24 05:26:48;;;;;;;14.10;8.30;;;12.70;99.90;;;;;;4993923;28;20268;-84
2023/04/24 05:29:15;;;;;;;15.67;8.53;;;12.90;99.90;;;;;;4993990;28;20600;-83
2023/04/24 05:31:42;;;;;;;176.00;16.60;;;13.00;99.90;;;;;;4977013;28;20237;-84
2023/04/24 05:34:10;;;;;;;14.90;8.40;;;13.10;99.90;;;;;;4976040;28;20690;-84
2023/04/24 05:36:37;;;;;;;15.97;8.70;;;13.20;99.90;;;;;;4976569;28;20224;-83
2023/04/24 05:39:04;;;;;;;24.27;9.13;;;13.20;99.90;;;;;;4976340;28;20197;-85
2023/04/24 05:41:34;;;;;;;15.47;8.37;;;13.40;99.90;;;;;;4993732;28;20291;-84
2023/04/24 05:44:01;;;;;;;13.50;8.80;;;13.40;99.90;;;;;;4976947;28;20191;-83
2023/04/24 05:46:28;;;;;;;14.87;8.47;;;13.60;99.90;;;;;;4976006;28;20193;-82
2023/04/24 05:48:55;;;;;;;15.20;8.80;;;13.70;99.90;;;;;;4976066;28;20204;-82
2023/04/24 05:51:22;;;;;;;15.87;8.70;;;13.70;99.90;;;;;;4976173;28;20626;-81
2023/04/24 05:53:49;;;;;;;18.83;8.83;;;13.70;99.90;;;;;;4975733;28;20303;-81
2023/04/24 05:56:16;;;;;;;26.07;9.90;;;13.80;99.90;;;;;;4993040;28;20711;-81
2023/04/24 05:58:43;;;;;;;13.37;8.70;;;13.90;99.90;;;;;;4979423;28;20200;-81
2023/04/24 06:01:10;;;;;;;13.57;8.27;;;13.90;99.90;;;;;;4975882;28;20212;-81
2023/04/24 06:03:39;;;;;;;14.07;8.80;;;13.90;99.90;;;;;;4975596;28;20655;-81
2023/04/24 06:06:07;;;;;;;11.93;8.67;;;14.00;99.90;;;;;;4993929;28;20664;-80
2023/04/24 06:08:35;;;;;;;14.53;9.20;;;14.00;99.90;;;;;;4976221;28;20199;-85
2023/04/24 06:11:02;;;;;;;13.80;9.03;;;14.20;99.90;;;;;;4976150;28;20610;-83
2023/04/24 06:13:30;;;;;;;13.93;9.10;;;14.20;99.90;;;;;;4975768;28;20201;-86
2023/04/24 06:15:57;;;;;;;17.20;9.23;;;14.30;99.90;;;;;;4973422;28;20209;-83
2023/04/24 06:18:26;;;;;;;27.37;9.50;;;14.20;99.90;;;;;;4985438;28;20227;-82
2023/04/24 06:20:55;;;;;;;16.07;8.73;;;14.40;99.90;;;;;;4973827;28;20212;-82
2023/04/24 06:23:21;;;;;;;17.57;9.40;;;14.50;99.90;;;;;;4973734;28;20220;-81
2023/04/24 06:25:48;;;;;;;39.13;10.00;;;14.50;99.90;;;;;;4957102;28;20534;-83
2023/04/24 06:28:15;;;;;;;14.40;8.90;;;14.50;99.90;;;;;;4974114;28;20225;-84
2023/04/24 06:30:43;;;;;;;13.70;8.33;;;14.60;99.90;;;;;;4972589;28;20678;-83
2023/04/24 06:33:10;;;;;;;15.33;8.90;;;14.70;99.90;;;;;;4956444;28;20201;-80
2023/04/24 06:35:53;;;;;;;13.00;8.23;;;14.80;99.90;;;;;;4957830;28;20233;-86
2023/04/24 06:38:20;;;;;;;13.33;8.40;;;14.90;99.90;;;;;;4961230;28;20196;-83
2023/04/24 06:40:47;;;;;;;15.23;8.60;;;14.90;99.90;;;;;;4960282;28;20194;-83
2023/04/24 06:43:20;;;;;;;12.53;8.73;;;14.90;99.90;;;;;;4960407;28;20587;-85
2023/04/24 06:45:47;;;;;;;13.13;8.97;;;15.00;99.90;;;;;;4960702;28;20565;-84
2023/04/24 06:48:26;;;;;;;12.83;8.50;;;15.10;99.90;;;;;;4959929;28;20762;-85
2023/04/24 06:50:53;;;;;;;12.70;8.13;;;15.30;99.90;;;;;;4898807;29;20216;-83
2023/04/24 06:53:21;;;;;;;14.93;8.27;;;15.40;99.90;;;;;;4882963;29;20208;-82
2023/04/24 06:55:48;;;;;;;12.50;8.70;;;15.60;99.90;;;;;;4898690;29;20228;-83
2023/04/24 06:58:15;;;;;;;16.30;8.37;;;15.70;99.90;;;;;;4899204;29;20215;-81
2023/04/24 07:00:42;;;;;;;19.63;9.13;;;15.90;99.90;;;;;;4899333;29;20688;-84
2023/04/24 07:03:09;;;;;;;12.13;8.40;;;16.10;99.90;;;;;;4899984;29;20218;-85
2023/04/24 07:05:38;;;;;;;12.87;8.60;;;16.40;99.90;;;;;;4898495;29;20255;-82
2023/04/24 07:08:23;;;;;;;14.00;8.53;;;16.60;99.90;;;;;;4874402;29;20238;-82
2023/04/24 07:10:56;;;;;;;13.30;8.33;;;16.90;99.90;;;;;;4920383;29;20199;-81
2023/04/24 07:13:23;;;;;;;13.13;8.23;;;17.00;99.90;;;;;;4920352;29;20203;-82
2023/04/24 07:15:54;;;;;;;19.57;8.57;;;17.10;99.90;;;;;;4920119;29;20743;-84
2023/04/24 07:18:31;;;;;;;13.87;8.40;;;17.20;99.90;;;;;;4920108;29;20202;-82
2023/04/24 07:20:57;;;;;;;14.83;8.67;;;17.30;99.90;;;;;;4919902;29;20198;-81
2023/04/24 07:23:24;;;;;;;15.00;9.00;;;17.50;99.90;;;;;;4913788;28;20228;-80
2023/04/24 07:25:55;;;;;;;13.27;8.50;;;17.60;99.90;;;;;;4960339;28;20204;-85
2023/04/24 07:31:59;;;;;;;12.57;8.40;;;18.00;99.90;;;;;;5217156;23;20228;-83
2023/04/24 07:37:30;;;;;;;11.77;8.17;;;18.40;99.90;;;;;;5240747;23;20242;-83
2023/04/24 07:40:24;;;;;;;12.60;7.47;;;18.60;99.90;;;;;;4954137;23;20252;-84
2023/04/24 07:43:12;;;;;;;12.57;7.73;;;18.80;99.90;;;;;;4978340;28;20296;-83
2023/04/24 07:45:40;;;;;;;16.70;7.80;;;18.70;99.90;;;;;;4978099;28;20661;-82
2023/04/24 07:48:08;;;;;;;15.23;7.77;;;18.80;99.90;;;;;;4977330;28;20205;-83
2023/04/24 07:50:36;;;;;;;13.97;8.07;;;19.10;99.90;;;;;;4995811;28;20193;-80
2023/04/24 07:53:03;;;;;;;15.80;8.60;;;19.10;99.90;;;;;;4978097;28;20673;-80
2023/04/24 07:55:32;;;;;;;14.40;7.83;;;19.30;99.90;;;;;;4995533;28;20540;-81
2023/04/24 07:57:59;;;;;;;13.33;7.90;;;19.60;99.90;;;;;;4978122;28;20264;-81
2023/04/24 08:00:26;;;;;;;15.30;8.40;;;19.90;99.90;;;;;;4978504;28;20212;-83
2023/04/24 08:02:53;;;;;;;13.10;8.10;;;20.10;99.90;;;;;;4978070;28;20217;-79
2023/04/24 08:05:21;;;;;;;12.97;8.10;;;20.50;99.90;;;;;;4977602;28;20669;-81
2023/04/24 08:07:50;;;;;;;15.70;8.30;;;21.60;99.90;;;;;;4978046;28;20221;-82
2023/04/24 08:10:17;;;;;;;11.73;8.20;;;22.40;98.50;;;;;;4977756;28;20659;-83
2023/04/24 08:12:43;;;;;;;12.65;8.20;;;22.80;97.00;;;;;;4978362;28;20280;-78
2023/04/24 08:15:10;;;;;;;13.60;8.75;;;23.70;93.40;;;;;;4978118;28;20228;-80
2023/04/24 08:17:37;;;;;;;13.70;8.68;;;23.60;91.60;;;;;;4965013;28;20570;-81
2023/04/24 08:20:05;;;;;;;14.43;9.00;;;23.10;91.30;;;;;;4980473;28;20705;-80
2023/04/24 08:22:33;;;;;;;11.90;8.30;;;23.10;91.80;;;;;;4979111;28;20288;-80
2023/04/24 08:25:01;;;;;;;11.73;8.23;;;23.30;91.10;;;;;;4977765;28;20287;-84
2023/04/24 08:27:28;;;;;;;12.20;8.25;;;23.10;91.00;;;;;;4977343;28;20197;-83
2023/04/24 08:29:55;;;;;;;11.10;8.40;;;22.70;90.80;;;;;;4986490;23;20205;-83
2023/04/24 08:32:22;;;;;;;12.82;8.05;;;22.40;91.00;;;;;;5013484;28;20608;-83
2023/04/24 08:34:49;;;;;;;11.73;7.90;;;22.40;91.80;;;;;;5013021;28;20723;-83
2023/04/24 08:37:16;;;;;;;11.57;8.50;;;22.40;92.00;;;;;;5014221;28;20247;-86
2023/04/24 08:39:42;;;;;;;10.70;7.90;;;22.20;92.70;;;;;;5013181;28;20200;-83
2023/04/24 08:42:12;;;;;;;12.77;8.20;;;22.10;92.20;;;;;;5013263;28;20196;-82
2023/04/24 08:44:39;;;;;;;12.30;7.73;;;22.00;91.80;;;;;;5013021;28;20296;-81
2023/04/24 08:47:07;;;;;;;13.47;7.83;;;22.00;91.70;;;;;;5014118;28;20543;-81
2023/04/24 08:49:36;;;;;;;12.00;8.07;;;22.00;91.70;;;;;;5012894;28;20219;-81
2023/04/24 08:52:05;;;;;;;10.63;7.60;;;21.80;91.60;;;;;;5012855;28;20665;-81
2023/04/24 08:54:34;;;;;;;12.63;8.10;;;21.80;92.50;;;;;;5014389;28;20192;-79
2023/04/24 08:57:03;;;;;;;11.77;8.30;;;21.80;92.50;;;;;;5012621;28;20692;-82
2023/04/24 08:59:31;;;;;;;16.33;8.87;;;21.90;92.50;;;;;;5013051;28;20188;-83
2023/04/24 09:02:03;;;;;;;14.10;8.70;;;21.80;91.20;;;;;;5012875;28;20200;-82
2023/04/24 09:04:33;;;;;;;12.13;7.07;;;21.90;91.20;;;;;;5013984;28;20525;-82
2023/04/24 09:07:01;;;;;;;15.13;8.30;;;21.90;91.70;;;;;;5012826;28;20551;-81
2023/04/24 09:09:31;;;;;;;14.18;7.82;;;22.20;91.70;;;;;;5013893;28;20274;-82
2023/04/24 09:11:58;;;;;;;13.10;7.97;;;22.90;90.10;;;;;;5011539;28;20193;-81
2023/04/24 09:14:27;;;;;;;13.48;8.40;;;23.80;86.80;;;;;;5013838;28;20188;-82
2023/04/24 09:16:54;;;;;;;13.80;8.20;;;24.50;82.40;;;;;;5012265;28;20252;-81
2023/04/24 09:19:22;;;;;;;14.20;7.63;;;25.00;78.00;;;;;;5012154;28;20200;-81
2023/04/24 09:21:49;;;;;;;12.45;7.57;;;25.50;76.60;;;;;;5012336;28;20363;-80
2023/04/24 09:24:20;;;;;;;10.65;6.97;;;25.80;70.30;;;;;;5018588;28;20200;-80
2023/04/24 09:26:47;;;;;;;10.98;7.03;;;26.00;70.70;;;;;;5012864;28;20188;-83
2023/04/24 09:29:18;;;;;;;9.93;6.70;;;26.30;67.60;;;;;;5014308;28;20218;-82
2023/04/24 09:31:46;;;;;;;8.75;6.68;;;26.70;66.10;;;;;;5016681;28;20234;-82
2023/04/24 09:34:13;;;;;;;10.90;7.47;;;27.30;67.60;;;;;;5011891;28;20236;-82
2023/04/24 09:36:42;;;;;;;10.25;7.40;;;27.40;64.20;;;;;;5011210;28;20291;-82
2023/04/24 09:39:19;;;;;;;10.05;7.63;;;27.20;61.60;;;;;;5012533;28;20242;-81
2023/04/24 09:41:56;;;;;;;10.35;7.68;;;26.90;61.40;;;;;;5032998;28;20187;-84
2023/04/24 09:44:26;;;;;;;11.93;7.28;;;27.00;61.80;;;;;;5015310;28;20659;-83
2023/04/24 09:46:58;;;;;;;12.40;7.60;;;27.50;61.40;;;;;;5015014;28;20286;-83
2023/04/24 09:49:29;;;;;;;9.88;7.88;;;27.90;61.70;;;;;;5014795;28;20199;-83
2023/04/24 09:52:07;;;;;;;11.95;7.55;;;28.10;60.40;;;;;;5015039;28;20199;-83
2023/04/24 09:54:36;;;;;;;12.13;7.75;;;28.50;58.60;;;;;;5033048;28;20215;-84
2023/04/24 09:57:07;;;;;;;11.25;7.85;;;28.50;58.90;;;;;;5014839;28;20223;-82
2023/04/24 09:59:34;;;;;;;11.18;7.70;;;28.80;58.30;;;;;;5015171;28;20196;-82
2023/04/24 10:02:16;;;;;;;11.88;7.97;;;28.70;56.60;;;;;;5014730;28;20246;-80
2023/04/24 10:04:59;;;;;;;9.35;7.30;;;28.50;56.90;;;;;;5024398;28;20641;-78
2023/04/24 10:07:27;;;;;;;10.80;7.32;;;28.60;56.00;;;;;;5004332;28;20290;-80
2023/04/24 10:09:54;;;;;;;9.55;6.90;;;28.70;55.90;;;;;;5016260;28;20207;-80
2023/04/24 10:12:22;;;;;;;11.23;7.68;;;28.90;55.90;;;;;;5015596;28;20187;-81
2023/04/24 10:14:50;;;;;;;9.65;7.00;;;28.80;54.90;;;;;;5015150;28;20306;-81
2023/04/24 10:17:18;;;;;;;11.05;6.70;;;29.00;54.90;;;;;;5014399;28;20223;-81
2023/04/24 10:19:46;;;;;;;11.15;7.47;;;29.30;54.20;;;;;;5014948;28;20192;-82
2023/04/24 10:22:18;;;;;;;8.25;6.78;;;29.30;54.00;;;;;;5017614;28;20199;-84
2023/04/24 10:24:47;;;;;;;10.23;6.68;;;29.70;53.80;;;;;;5023352;28;20188;-89
2023/04/24 10:27:15;;;;;;;7.95;6.35;;;30.00;53.40;;;;;;5014868;28;20199;-84
2023/04/24 10:29:44;;;;;;;9.70;6.50;;;30.30;52.50;;;;;;5020118;28;20195;-86
2023/04/24 10:32:11;;;;;;;9.88;6.55;;;30.40;50.10;;;;;;5028011;28;20214;-85
2023/04/24 10:34:38;;;;;;;10.65;6.43;;;30.90;50.30;;;;;;5017832;28;20574;-81
2023/04/24 10:37:05;;;;;;;9.15;6.88;;;31.30;51.10;;;;;;5017771;28;20216;-75
2023/04/24 10:39:33;;;;;;;8.98;6.80;;;31.10;50.50;;;;;;5016197;28;20691;-78
2023/04/24 10:42:00;;;;;;;11.23;7.20;;;31.10;50.70;;;;;;5015082;28;20207;-88
2023/04/24 10:44:43;;;;;;;9.90;7.05;;;31.20;51.00;;;;;;5015533;28;20206;-76
2023/04/24 10:47:14;;;;;;;10.35;7.20;;;31.00;49.30;;;;;;5015279;28;20211;-85
2023/04/24 10:49:41;;;;;;;8.88;6.93;;;30.90;48.40;;;;;;5015939;28;20253;-86
2023/04/24 10:52:09;;;;;;;8.73;6.65;;;31.10;49.10;;;;;;5032666;28;20648;-86
2023/04/24 10:54:41;;;;;;;9.55;6.38;;;31.40;49.00;;;;;;5032492;28;20541;-82
2023/04/24 10:57:30;;;;;;;8.55;6.50;;;31.70;48.10;;;;;;5014509;28;20338;-84
2023/04/24 11:00:15;;;;;;;9.77;6.13;;;31.80;47.70;;;;;;5032707;28;20200;-75
2023/04/24 11:02:48;;;;;;;8.55;6.40;;;32.00;46.90;;;;;;5014646;28;20208;-80
2023/04/24 11:05:17;;;;;;;8.63;6.20;;;31.40;44.90;;;;;;5032395;28;20202;-80
2023/04/24 11:08:12;;;;;;;8.85;6.30;;;31.40;46.10;;;;;;5014291;28;20192;-78
2023/04/24 11:10:46;;;;;;;7.03;5.60;;;30.90;45.40;;;;;;5014958;28;20245;-83
2023/04/24 11:13:16;;;;;;;8.32;5.78;;;31.50;45.90;;;;;;5014930;28;20206;-76
2023/04/24 11:15:43;;;;;;;8.18;5.80;;;31.50;45.30;;;;;;5014000;28;20196;-77
2023/04/24 11:18:16;;;;;;;7.57;5.90;;;31.80;44.70;;;;;;5014077;28;20557;-83
2023/04/24 11:20:44;;;;;;;7.63;5.50;;;31.80;44.40;;;;;;5014405;28;20223;-83
2023/04/24 11:23:13;;;;;;;6.90;5.55;;;31.60;44.50;;;;;;5024451;28;20253;-82
2023/04/24 11:25:41;;;;;;;7.75;5.78;;;32.00;44.80;;;;;;5018284;28;20195;-82
2023/04/24 11:28:16;;;;;;;9.23;5.82;;;31.90;45.30;;;;;;5019285;28;20287;-78
2023/04/24 11:30:43;;;;;;;8.32;5.53;;;31.70;43.40;;;;;;5035944;28;20219;-79
2023/04/24 11:33:10;;;;;;;8.25;6.22;;;31.00;43.40;;;;;;5030696;28;20210;-81
2023/04/24 11:35:40;;;;;;;8.35;5.70;;;30.80;44.80;;;;;;5017572;28;20219;-82
2023/04/24 11:38:08;;;;;;;7.03;5.55;;;30.70;44.90;;;;;;5017997;28;20222;-82
2023/04/24 11:40:38;;;;;;;8.40;5.80;;;31.00;44.80;;;;;;5017694;28;20284;-78
2023/04/24 11:43:06;;;;;;;7.03;5.63;;;31.00;45.30;;;;;;5035352;28;20650;-77
2023/04/24 11:45:34;;;;;;;9.57;6.22;;;31.40;45.10;;;;;;5017803;28;20217;-81
2023/04/24 11:48:03;;;;;;;9.23;5.95;;;31.90;45.10;;;;;;5017836;28;20184;-82
2023/04/24 11:50:33;;;;;;;8.93;5.68;;;32.20;44.20;;;;;;5050616;28;20212;-82
2023/04/24 11:53:00;;;;;;;8.80;6.03;;;32.60;43.40;;;;;;5017765;28;20764;-84
2023/04/24 11:55:29;;;;;;;9.43;6.55;;;33.10;42.80;;;;;;5035549;28;20207;-81
2023/04/24 11:57:58;;;;;;;10.57;6.65;;;32.90;42.30;;;;;;5035082;28;20722;-78
2023/04/24 12:00:34;;;;;;;8.77;6.30;;;33.00;42.10;;;;;;5017294;28;20210;-79
2023/04/24 12:03:09;;;;;;;8.40;5.85;;;33.00;43.00;;;;;;4986268;28;20203;-78
2023/04/24 12:05:44;;;;;;;7.63;6.07;;;33.40;43.10;;;;;;5035847;28;20195;-76
2023/04/24 12:08:26;;;;;;;7.47;6.00;;;33.90;41.80;;;;;;5017623;28;20207;-81
2023/04/24 12:10:53;;;;;;;8.70;6.20;;;34.10;41.40;;;;;;5017936;28;20200;-78
2023/04/24 12:13:21;;;;;;;6.60;5.72;;;34.10;42.30;;;;;;5017986;28;20290;-79
2023/04/24 12:15:50;;;;;;;9.02;6.32;;;34.00;41.80;;;;;;5017569;28;20238;-82
2023/04/24 12:18:24;;;;;;;7.57;6.40;;;34.00;41.50;;;;;;5017808;28;20200;-83
2023/04/24 12:20:53;;;;;;;8.90;6.00;;;33.50;41.80;;;;;;5017031;28;20249;-78
2023/04/24 12:23:36;;;;;;;8.82;6.30;;;33.30;42.90;;;;;;5017690;28;20202;-76
2023/04/24 12:26:04;;;;;;;9.20;6.60;;;33.80;42.30;;;;;;5016980;28;20227;-80
2023/04/24 12:28:36;;;;;;;8.38;6.25;;;33.20;42.40;;;;;;5001132;28;20538;-80
2023/04/24 12:31:03;;;;;;;7.40;5.10;;;33.20;42.50;;;;;;5017208;28;20318;-78
2023/04/24 12:33:38;;;;;;;8.57;5.50;;;32.30;39.50;;;;;;5016198;28;20617;-77
2023/04/24 12:36:14;;;;;;;7.43;5.50;;;32.00;40.20;;;;;;5016601;28;20214;-83
2023/04/24 12:38:46;;;;;;;17.50;5.55;;;32.10;41.70;;;;;;5016869;28;20218;-81
2023/04/24 12:41:14;;;;;;;23.30;5.38;;;31.70;41.30;;;;;;5017058;28;20198;-77
2023/04/24 12:44:12;;;;;;;15.80;4.35;;;28.00;46.60;;;;;;5034420;28;20195;-79
2023/04/24 12:46:39;;;;;;;16.95;4.68;;;26.40;50.30;;;;;;5021705;28;20257;-77
2023/04/24 12:49:06;;;;;;;12.77;4.47;;;25.90;51.80;;;;;;5017774;28;20215;-84
2023/04/24 12:51:33;;;;;;;14.73;4.70;;;25.70;52.60;;;;;;5034373;28;20640;-85
2023/04/24 12:54:00;;;;;;;10.07;4.57;;;25.90;53.00;;;;;;5017297;28;20230;-85